Terminal Aerodrome Forecast
Issued by NWS

Home | Current Version | Previous Version | Text Only | Print | Product List | Glossary On
Versions: 1 2 3 4 5 6 7 8 9 10 11 12
000
FTUS43 KMPX 102300
TAFRNH
TAF
KRNH 102337Z 1100/1124 16007KT P6SM FEW050 BKN250
     FM110500 17008KT P6SM -SHRA SCT050 BKN090 OVC250
      TEMPO 1110/1114 4SM TSRA OVC035CB
     FM111400 20010KT P6SM -SHRA BKN050 OVC080
     FM111900 22008KT P6SM OVC050=

USA.gov is the U.S. government's official web portal to all federal, state and local government web resources and services.